• Join FlightAware (Why Join?)
  • Login
  • US Flag 
12:40PM EDT


 

Airport Tracker/Info


-or-


 

Live Flight TrackerFlight Track Log ✈ EGF4090 ✈ 08-May-2013 ✈ KORD - KLIT

Flight Track Log - Related Links

Times and Time Zones

All times are in EDT time to prevent confusion due to time zone crossing. See the EGF4090 flight status page for this flight to view local times or setup timezone preferences in your user account.

Time Position Orientation Groundspeed Altitude Reporting Facility
EDT Latitude Longitude Course Direction KTS MPH feet Rate Location/Type
11:17PM 41.9833 -87.8500 194° South 161 185 2,200  Level Chicago TRACON
11:18PM 41.9500 -87.8000 132° Southeast 219 252 4,000 1,680 Climbing Chicago TRACON
11:19PM 41.6957 -88.0966 192° South  Level Estimated
11:19PM 41.8833 -87.8000 180° South 255 293 5,700  Level Chicago TRACON
11:20PM 41.6004 -88.1596 189° South  Level Estimated
11:21PM 41.5085 -88.0880 150° Southeast  Level FlightAware Approximate
11:21PM 41.7306 -87.8831 202° Southwest 283 326 10,400  Level Chicago Center
11:22PM 41.4137 -88.1522 194° South  Level Estimated
11:23PM 41.6533 -87.9186 199° South 292 336 12,500  Level Chicago Center
11:24PM 41.5528 -87.9639 199° South 319 367 13,800 1,140 Climbing Chicago Center
11:25PM 41.4575 -87.9997 196° South 349 402 14,900 900 Climbing Chicago Center
11:26PM 41.3711 -88.0186 189° South 364 419 15,700 900 Climbing Chicago Center
11:27PM 41.2658 -88.0414 189° South 379 436 16,800 1,020 Climbing Chicago Center
11:28PM 41.1525 -88.1197 207° Southwest 383 441 17,900 1,020 Climbing Chicago Center
11:29PM 41.0572 -88.1889 209° Southwest 388 447 18,900 960 Climbing Chicago Center
11:30PM 40.9619 -88.2550 208° Southwest 387 445 19,900 900 Climbing Chicago Center
11:31PM 40.8650 -88.3239 208° Southwest 395 455 20,800 900 Climbing Chicago Center
11:32PM 40.7661 -88.3925 208° Southwest 402 463 21,800 960 Climbing Chicago Center
11:33PM 40.6675 -88.4625 208° Southwest 406 467 22,800 960 Climbing Chicago Center
11:34PM 40.5658 -88.5322 208° Southwest 411 473 23,800 540 Climbing Chicago Center
11:35PM 40.4522 -88.6108 208° Southwest 418 481 24,000 60 Climbing Chicago Center
11:36PM 40.3431 -88.6856 208° Southwest 437 503 24,000  Level Chicago Center
11:37PM 40.2306 -88.7631 208° Southwest 452 520 24,000  Level Chicago Center
11:38PM 40.1181 -88.8400 208° Southwest 447 514 24,000  Level Kansas City Center
11:39PM 40.0081 -88.9150 208° Southwest 447 514 24,000  Level Kansas City Center
11:40PM 39.8967 -88.9903 207° Southwest 447 514 24,000  Level Kansas City Center
11:41PM 39.7858 -89.0658 208° Southwest 449 517 24,000  Level Kansas City Center
11:42PM 39.6736 -89.1408 207° Southwest 452 520 24,000  Level Kansas City Center
11:43PM 39.5608 -89.2161 207° Southwest 453 521 24,000  Level Kansas City Center
11:44PM 39.4547 -89.2889 208° Southwest 445 512 24,000  Level Kansas City Center
11:45PM 39.3464 -89.3597 207° Southwest 441 507 24,000  Level Kansas City Center
11:46PM 39.2386 -89.4317 207° Southwest 436 502 24,000  Level Kansas City Center
11:47PM 39.1156 -89.5128 207° Southwest 427 491 24,000  Level Kansas City Center
11:48PM 39.0097 -89.5825 207° Southwest 427 491 24,000  Level Kansas City Center
11:49PM 38.9119 -89.6472 207° Southwest 429 494 24,000  Level Kansas City Center
11:50PM 38.8114 -89.7128 207° Southwest 435 501 24,000  Level Kansas City Center
11:51PM 38.7047 -89.7822 207° Southwest 432 497 24,000  Level Kansas City Center
11:52PM 38.5981 -89.8508 207° Southwest 428 493 24,000  Level Kansas City Center
11:53PM 38.4889 -89.9217 207° Southwest 434 499 24,000  Level Kansas City Center
11:54PM 38.3606 -90.0047 207° Southwest 430 495 24,000  Level Kansas City Center
11:55PM 38.2525 -90.0731 206° Southwest 430 495 24,000  Level Kansas City Center
11:56PM 38.1458 -90.1417 207° Southwest 429 494 24,000  Level Kansas City Center
11:57PM 38.0397 -90.2108 207° Southwest 429 494 24,000  Level Kansas City Center
11:58PM 37.9319 -90.2783 206° Southwest 429 494 24,000  Level Kansas City Center
11:59PM 37.8253 -90.3483 207° Southwest 431 496 24,000  Level Kansas City Center
12:00AM 37.7175 -90.4172 207° Southwest 434 499 24,000  Level Kansas City Center
12:01AM 37.6069 -90.4850 206° Southwest 439 505 24,000  Level Kansas City Center
12:02AM 37.4992 -90.5572 208° Southwest 439 505 24,000  Level Kansas City Center
12:03AM 37.3942 -90.6228 206° Southwest 428 493 24,000  Level Kansas City Center
12:04AM 37.2822 -90.6911 206° Southwest 431 496 24,000  Level Kansas City Center
12:05AM 37.1939 -90.7475 207° Southwest 441 507 24,000  Level Memphis Center
12:06AM 37.0853 -90.8119 205° Southwest 435 501 24,000  Level Memphis Center
12:07AM 36.9789 -90.8814 208° Southwest 429 494 24,000  Level Memphis Center
12:08AM 36.8700 -90.9481 206° Southwest 429 494 24,000  Level Memphis Center
12:09AM 36.7636 -91.0147 207° Southwest 429 494 24,000  Level Memphis Center
12:10AM 36.6547 -91.0811 206° Southwest 434 499 24,000 -180 Level Memphis Center
12:11AM 36.5461 -91.1447 205° Southwest 434 499 23,700 -660 Descending Memphis Center
12:12AM 36.4372 -91.2108 206° Southwest 434 499 22,700 -900 Descending Memphis Center
12:13AM 36.3303 -91.2767 206° Southwest 434 499 22,000 -360 Descending Memphis Center
12:14AM 36.2236 -91.3422 206° Southwest 428 493 22,000  Level Memphis Center
12:15AM 36.1167 -91.4053 205° Southwest 428 493 22,000  Level Memphis Center
12:16AM 36.0097 -91.4681 205° Southwest 421 484 22,000  Level Memphis Center
12:17AM 35.9092 -91.5308 207° Southwest 421 484 22,000 -900 Level Memphis Center
12:18AM 35.8042 -91.5958 207° Southwest 421 484 20,200 -2,100 Descending Memphis Center
12:19AM 35.7036 -91.6531 205° Southwest 415 478 17,900 -2,400 Descending Memphis Center
12:20AM 35.6050 -91.7156 207° Southwest 410 472 15,400 -2,580 Descending Memphis Center
12:21AM 35.5083 -91.7700 205° Southwest 405 466 12,800 -2,580 Descending Memphis Center
12:21AM 35.4581 -91.7997 206° Southwest 378 435 11,600 -2,040 Descending Memphis Center
12:22AM 35.4139 -91.8244 205° Southwest 385 443 10,800 -1,260 Descending Memphis Center
12:22AM 35.3592 -91.8592 207° Southwest 341 392 10,200 -840 Descending Memphis Center
12:23AM 35.3297 -91.8764 206° Southwest 355 409 10,000 -600 Descending Memphis Center
12:23AM 35.2858 -91.9011 205° Southwest 276 318 9,600 -900 Descending Memphis Center
12:24AM 35.2689 -91.9136 211° Southwest 319 367 9,100 -1,920 Descending Memphis Center
12:24AM 35.2144 -91.9303 194° South 259 298 7,700 -1,800 Descending Memphis Center
12:25AM 35.1956 -91.9350 192° South 287 330 7,300 -1,560 Descending Memphis Center
12:25AM 35.1494 -91.9519 197° South 264 304 6,300 -1,620 Descending Memphis Center
12:26AM 35.1264 -91.9592 194° South 274 315 5,700 -1,200 Descending Memphis Center
12:26AM 35.0825 -91.9736 195° South 249 287 5,100 -720 Descending Memphis Center
12:27AM 35.0614 -91.9806 195° South 256 295 5,000 -120 Descending Memphis Center
12:27AM 35.0175 -91.9975 198° South 240 276 5,000  Level Memphis Center
12:28AM 34.9986 -92.0047 197° South 245 282 5,000  Level Memphis Center
12:28AM 34.9525 -92.0217 197° South 240 276 5,000 -240 Level Memphis Center
12:29AM 34.9336 -92.0264 192° South 245 282 4,800 -1,440 Descending Memphis Center
12:29AM 34.8875 -92.0458 199° South 244 281 3,600 -1,620 Descending Memphis Center
12:30AM 34.8706 -92.0556 205° Southwest 245 282 3,200 -600 Descending Memphis Center
12:30AM 34.8328 -92.0850 213° Southwest 214 246 3,000 -240 Descending Memphis Center
12:31AM 34.8222 -92.0900 201° Southwest 229 264 3,000  Level Memphis Center